This is the latest recevied weather packets stored in our database for station/object KB9HUO. If no packets are shown the sender has not sent any weather packets the latest 10 day(s).
| Time | Temp. | Humidity | Pressure | Rain* | Wind** | Luminosity | Snow |
|---|---|---|---|---|---|---|---|
| 1777493321 | 18.33° C | 56% | 1013.7 hPa | 0 mm | - | 144 W/m² | - |
| 1777493017 | 17.78° C | 57% | 1013.7 hPa | 0 mm | - | 239 W/m² | - |
| 1777492714 | 17.78° C | 56% | 1014 hPa | 0 mm | - | 103 W/m² | - |
| 1777492413 | 17.78° C | 58% | 1014 hPa | 0 mm | - | 107 W/m² | - |
| 1777492112 | 17.78° C | 60% | 1013.7 hPa | 0 mm | - | 142 W/m² | - |
| 1777491808 | 17.78° C | 63% | 1014.1 hPa | 0 mm | - | 145 W/m² | - |
| 1777491505 | 18.33° C | 59% | 1013.8 hPa | 0 mm | - | 125 W/m² | - |
| 1777491203 | 18.33° C | 60% | 1013.8 hPa | 0 mm | - | 188 W/m² | - |
| 1777490898 | 18.33° C | 59% | 1013.8 hPa | 0 mm | - | 161 W/m² | - |
| 1777490595 | 18.89° C | 59% | 1013.5 hPa | 0 mm | - | 147 W/m² | - |
| 1777490290 | 18.89° C | 59% | 1013.7 hPa | 0 mm | - | 329 W/m² | - |
| 1777489988 | 18.89° C | 58% | 1013.6 hPa | 0 mm | - | 231 W/m² | - |
| 1777489686 | 18.89° C | 60% | 1013.5 hPa | 0 mm | - | 617 W/m² | - |
| 1777489382 | 18.89° C | 58% | 1013.5 hPa | 0 mm | - | 192 W/m² | - |
| 1777489079 | 18.89° C | 65% | 1013.4 hPa | 0 mm | - | 658 W/m² | - |
| 1777488776 | 18.33° C | 64% | 1013.5 hPa | 0 mm | - | 560 W/m² | - |
| 1777488474 | 18.33° C | 63% | 1013.4 hPa | 0 mm | - | 191 W/m² | - |
| 1777488172 | 18.33° C | 62% | 1013.5 hPa | 0 mm | - | 208 W/m² | - |
| 1777487869 | 18.89° C | 62% | 1013.7 hPa | 0 mm | - | 224 W/m² | - |
| 1777487567 | 18.89° C | 64% | 1013.6 hPa | 0 mm | - | 378 W/m² | - |
| 1777487263 | 18.89° C | 59% | 1013.4 hPa | 0 mm | - | 246 W/m² | - |
| 1777486960 | 19.44° C | 58% | 1013.4 hPa | 0 mm | - | 271 W/m² | - |
| 1777486656 | 18.33° C | 62% | 1013.4 hPa | 0 mm | - | 849 W/m² | - |
| 1777486355 | 17.78° C | 65% | 1013.6 hPa | 0 mm | - | 751 W/m² | - |
| 1777486052 | 17.78° C | 65% | 1013.6 hPa | 0 mm | - | 140 W/m² | - |
* Rain latest hour (hover to see other rain measurements)
** Current wind speed in m/s (hover to see current wind gust speed)